Time;durP1;ratioP1;P1;durP2;ratioP2;P2;SDS_P1;SDS_P2;PMS_P1;PMS_P2;Temp;Humidity;BMP_temperature;BMP_pressure;BME280_temperature;BME280_humidity;BME280_pressure;Samples;Min_cycle;Max_cycle;Signal;HPM_P1;HPM_P2
2021/07/28 00:02:13;;;;;;;;;13.75;13.75;;;;;18.53;86.00;100877.25;5010944;28;45550;-86
2021/07/28 00:04:39;;;;;;;;;16.50;14.25;;;;;18.53;86.21;100879.09;5025037;28;45745;-83
2021/07/28 00:07:05;;;;;;;;;17.75;13.75;;;;;18.53;85.81;100879.91;5022488;28;45920;-81
2021/07/28 00:09:31;;;;;;;;;14.25;13.00;;;;;18.55;86.23;100869.84;5013253;28;45751;-82
2021/07/28 00:11:56;;;;;;;;;12.25;11.75;;;;;18.54;86.56;100870.84;5023911;28;45875;-82
2021/07/28 00:14:22;;;;;;;;;11.25;9.50;;;;;18.58;85.99;100869.44;5008593;28;45640;-83
2021/07/28 00:16:47;;;;;;;;;14.00;11.75;;;;;18.59;86.22;100873.75;5025034;28;46614;-82
2021/07/28 00:19:25;;;;;;;;;14.50;14.00;;;;;18.59;86.21;100873.75;5008613;28;45551;-83
2021/07/28 00:24:35;;;;;;;;;16.75;14.75;;;;;18.60;86.08;100875.44;5023073;28;45371;-81
2021/07/28 00:27:01;;;;;;;;;12.50;11.00;;;;;18.58;85.80;100874.78;5025293;28;46044;-81
2021/07/28 00:29:30;;;;;;;;;15.25;13.75;;;;;18.58;86.17;100869.44;5021286;28;45487;-84
2021/07/28 00:31:56;;;;;;;;;12.00;12.00;;;;;18.57;85.99;100881.19;5022053;28;45578;-83
2021/07/28 00:34:21;;;;;;;;;11.50;10.25;;;;;18.57;85.87;100874.97;5002725;28;45498;-83
2021/07/28 00:36:47;;;;;;;;;13.50;12.25;;;;;18.58;85.97;100874.78;5000484;28;48584;-84
2021/07/28 00:39:12;;;;;;;;;13.50;11.75;;;;;18.56;85.66;100868.81;5025521;28;45440;-84
2021/07/28 00:41:43;;;;;;;;;11.50;10.50;;;;;18.57;85.48;100867.81;5023244;28;45430;-83
2021/07/28 00:44:09;;;;;;;;;13.75;10.50;;;;;18.57;86.47;100870.47;5026332;28;45608;-84
2021/07/28 00:46:35;;;;;;;;;10.25;10.00;;;;;18.54;85.54;100865.50;5018553;28;47249;-84
2021/07/28 00:49:00;;;;;;;;;11.75;9.00;;;;;18.52;85.71;100864.03;5021045;28;45613;-84
2021/07/28 00:51:26;;;;;;;;;11.25;10.50;;;;;18.49;85.69;100862.59;5005335;28;45535;-83
2021/07/28 00:53:51;;;;;;;;;7.25;6.75;;;;;18.45;85.22;100862.19;5021315;28;45455;-83
2021/07/28 00:56:20;;;;;;;;;8.00;7.25;;;;;18.39;85.28;100862.94;5024103;28;45608;-82
2021/07/28 00:58:45;;;;;;;;;9.75;9.00;;;;;18.37;85.02;100861.50;5008247;28;46017;-85
2021/07/28 01:01:11;;;;;;;;;7.75;7.75;;;;;18.31;85.02;100867.66;5002039;28;45522;-83
2021/07/28 01:03:37;;;;;;;;;8.75;5.50;;;;;18.27;84.94;100867.19;5008008;28;45618;-83
2021/07/28 01:06:02;;;;;;;;;9.00;7.25;;;;;18.23;85.11;100864.13;5018804;28;48165;-84
2021/07/28 01:08:28;;;;;;;;;8.50;6.75;;;;;18.19;84.96;100870.88;5004734;28;45579;-83
2021/07/28 01:10:56;;;;;;;;;8.75;7.00;;;;;18.16;85.29;100871.25;5024019;28;45610;-83
2021/07/28 01:13:29;;;;;;;;;7.25;6.00;;;;;18.12;85.01;100872.66;5022857;28;45509;-83
2021/07/28 01:16:04;;;;;;;;;6.50;6.50;;;;;18.07;85.00;100875.09;5020490;28;45576;-84
2021/07/28 01:18:29;;;;;;;;;7.75;7.00;;;;;18.04;85.03;100873.66;4996510;28;45639;-85
2021/07/28 01:20:55;;;;;;;;;9.25;8.00;;;;;18.03;85.00;100874.69;5023117;28;45740;-84
2021/07/28 01:23:25;;;;;;;;;7.75;5.50;;;;;18.01;85.30;100883.91;5007001;28;45641;-85
2021/07/28 01:25:53;;;;;;;;;7.25;7.00;;;;;18.00;86.09;100884.91;5022847;28;46154;-84
2021/07/28 01:28:20;;;;;;;;;6.75;5.75;;;;;18.02;85.83;100888.22;5021989;28;45646;-84
2021/07/28 01:30:56;;;;;;;;;9.25;7.50;;;;;18.01;85.81;100887.41;5004776;28;45926;-84
2021/07/28 01:33:21;;;;;;;;;7.75;5.25;;;;;18.01;86.23;100891.94;5014269;28;45572;-83
2021/07/28 01:35:47;;;;;;;;;7.75;6.75;;;;;18.00;86.03;100890.28;5022356;28;45438;-84
2021/07/28 01:38:12;;;;;;;;;5.75;5.00;;;;;18.00;85.14;100887.59;5009530;28;45639;-84
2021/07/28 01:40:39;;;;;;;;;7.25;5.75;;;;;18.00;85.51;100892.94;5019924;28;45623;-84
2021/07/28 01:43:14;;;;;;;;;6.00;5.00;;;;;18.00;85.56;100884.91;5022434;28;45665;-83
2021/07/28 01:45:41;;;;;;;;;5.50;4.50;;;;;18.00;85.78;100885.78;5004426;28;47344;-84
2021/07/28 01:48:07;;;;;;;;;8.00;5.50;;;;;18.00;85.52;100891.13;5023884;28;45521;-84
2021/07/28 01:50:32;;;;;;;;;6.25;4.75;;;;;18.01;85.43;100897.28;5020901;28;45692;-83
2021/07/28 01:53:05;;;;;;;;;6.00;6.00;;;;;17.99;84.70;100900.16;5004239;28;45590;-84
2021/07/28 01:55:31;;;;;;;;;7.00;5.00;;;;;17.95;85.24;100898.06;5022190;28;46771;-84
2021/07/28 01:57:58;;;;;;;;;6.00;6.00;;;;;17.89;85.35;100896.97;5003800;28;45637;-84
2021/07/28 02:00:24;;;;;;;;;7.00;5.25;;;;;17.84;85.08;100899.41;5022109;28;45474;-84
2021/07/28 02:02:49;;;;;;;;;6.25;6.25;;;;;17.81;85.48;100897.13;5021014;28;45674;-83
2021/07/28 02:05:15;;;;;;;;;3.00;3.00;;;;;17.76;85.10;100900.34;5026779;28;46378;-85
2021/07/28 02:07:40;;;;;;;;;6.00;4.00;;;;;17.73;85.50;100895.41;5021375;28;45592;-84
2021/07/28 02:10:06;;;;;;;;;6.75;3.75;;;;;17.72;84.88;100898.25;5021825;28;45580;-84
2021/07/28 02:12:32;;;;;;;;;4.25;4.25;;;;;17.73;85.59;100895.41;5002214;28;50311;-84
2021/07/28 02:14:57;;;;;;;;;6.75;5.75;;;;;17.72;85.75;100899.06;5025764;28;46048;-84
2021/07/28 02:17:22;;;;;;;;;7.00;5.50;;;;;17.74;85.79;100899.72;5009044;28;45809;-83
2021/07/28 02:19:48;;;;;;;;;5.00;5.00;;;;;17.76;85.70;100899.53;5009998;28;45527;-83
2021/07/28 02:22:13;;;;;;;;;6.00;5.00;;;;;17.76;86.06;100897.69;5004663;28;45895;-84
2021/07/28 02:24:40;;;;;;;;;6.00;4.00;;;;;17.79;86.11;100899.97;5023005;28;46063;-84
2021/07/28 02:27:06;;;;;;;;;5.25;5.25;;;;;17.80;85.27;100904.34;5022464;28;46130;-83
2021/07/28 02:29:31;;;;;;;;;7.00;6.50;;;;;17.80;85.11;100900.81;5002042;28;45628;-84
2021/07/28 02:31:57;;;;;;;;;6.25;5.00;;;;;17.80;85.67;100901.66;5028429;28;45592;-84
2021/07/28 02:34:23;;;;;;;;;7.00;5.00;;;;;17.81;84.61;100905.16;5006607;28;47203;-83
2021/07/28 02:36:48;;;;;;;;;6.00;5.00;;;;;17.81;85.28;100897.94;5026389;28;45632;-85
2021/07/28 02:39:14;;;;;;;;;5.75;5.00;;;;;17.83;85.18;100895.91;5027217;28;45564;-84
2021/07/28 02:41:39;;;;;;;;;4.75;4.75;;;;;17.84;85.04;100899.41;5007396;28;45497;-83
2021/07/28 02:44:05;;;;;;;;;5.50;4.50;;;;;17.83;84.59;100895.91;5028738;28;45941;-84
2021/07/28 02:46:30;;;;;;;;;6.00;5.00;;;;;17.84;84.74;100899.41;5008415;28;45571;-83
2021/07/28 02:48:55;;;;;;;;;6.50;4.00;;;;;17.84;84.16;100900.22;5012417;28;45978;-84
2021/07/28 02:51:21;;;;;;;;;4.00;4.00;;;;;17.84;84.15;100902.91;5007899;28;46492;-84
2021/07/28 02:53:46;;;;;;;;;4.00;4.00;;;;;17.83;84.34;100898.59;5005456;28;48358;-85
2021/07/28 02:56:11;;;;;;;;;3.75;3.50;;;;;17.83;84.00;100903.94;5012323;28;45909;-84
2021/07/28 02:58:37;;;;;;;;;4.25;4.25;;;;;17.81;84.04;100899.81;5008927;28;45456;-84
2021/07/28 03:01:02;;;;;;;;;5.00;5.00;;;;;17.79;83.84;100897.28;5026860;28;45766;-84
2021/07/28 03:03:27;;;;;;;;;5.75;4.50;;;;;17.79;84.28;100905.31;5025809;28;46368;-84
2021/07/28 03:05:53;;;;;;;;;5.50;4.50;;;;;17.78;83.71;100901.00;5023814;28;51371;-82
2021/07/28 03:08:18;;;;;;;;;4.00;4.00;;;;;17.74;84.12;100901.56;5027212;28;45490;-83
2021/07/28 03:10:45;;;;;;;;;6.25;4.50;;;;;17.74;83.65;100905.06;5022780;28;45422;-83
2021/07/28 03:13:11;;;;;;;;;5.50;5.00;;;;;17.73;83.65;100911.44;5003953;28;47872;-83
2021/07/28 03:15:36;;;;;;;;;5.00;4.50;;;;;17.71;83.09;100913.47;5008534;28;45577;-84
2021/07/28 03:18:01;;;;;;;;;5.50;3.75;;;;;17.70;83.32;100914.47;5008385;28;45686;-83
2021/07/28 03:20:27;;;;;;;;;4.00;4.00;;;;;17.69;83.96;100910.16;5007680;28;45550;-83
2021/07/28 03:22:52;;;;;;;;;4.25;4.00;;;;;17.69;83.62;100906.66;5007532;28;47265;-84
2021/07/28 03:25:18;;;;;;;;;3.00;3.00;;;;;17.68;82.60;100905.84;5024731;28;45426;-83
2021/07/28 03:27:43;;;;;;;;;4.00;4.00;;;;;17.66;82.88;100907.88;5002683;28;45613;-82
2021/07/28 03:30:09;;;;;;;;;4.00;4.00;;;;;17.65;83.32;100914.22;5022768;28;45691;-82
2021/07/28 03:32:34;;;;;;;;;4.00;4.00;;;;;17.64;83.14;100907.22;5013811;28;48141;-83
2021/07/28 03:35:00;;;;;;;;;6.50;5.00;;;;;17.65;82.71;100914.22;5009496;28;45498;-83
2021/07/28 03:37:25;;;;;;;;;3.00;3.00;;;;;17.66;82.42;100917.75;5005230;28;46021;-83
2021/07/28 03:40:00;;;;;;;;;5.25;4.00;;;;;17.65;82.93;100922.22;5005006;28;45535;-85
2021/07/28 03:42:29;;;;;;;;;6.25;3.75;;;;;17.65;82.82;100918.75;5018179;28;45665;-84
2021/07/28 03:44:56;;;;;;;;;4.00;4.00;;;;;17.65;82.62;100919.56;5007720;28;45534;-84
2021/07/28 03:47:21;;;;;;;;;5.50;2.25;;;;;17.65;82.44;100916.88;5008444;28;45568;-83
2021/07/28 03:49:46;;;;;;;;;5.25;4.00;;;;;17.65;82.37;100919.56;5003524;28;45301;-83
2021/07/28 03:52:12;;;;;;;;;5.25;3.75;;;;;17.65;81.75;100926.75;5000611;28;47816;-81
2021/07/28 03:54:37;;;;;;;;;4.25;4.00;;;;;17.63;80.72;100925.13;5025423;28;45467;-81
2021/07/28 03:57:03;;;;;;;;;5.75;3.25;;;;;17.61;81.44;100920.97;5007230;28;45515;-80
2021/07/28 03:59:28;;;;;;;;;6.00;3.25;;;;;17.59;81.85;100926.50;5024283;28;45757;-84
2021/07/28 04:01:53;;;;;;;;;3.25;2.50;;;;;17.58;81.84;100926.69;5009741;28;48174;-85
2021/07/28 04:04:19;;;;;;;;;3.75;3.50;;;;;17.57;81.83;100922.38;5006104;28;45514;-80
2021/07/28 04:06:44;;;;;;;;;3.00;3.00;;;;;17.55;81.54;100929.75;5026776;28;45908;-81
2021/07/28 04:09:09;;;;;;;;;5.00;4.00;;;;;17.53;81.21;100929.94;5025070;28;45455;-80
2021/07/28 04:11:35;;;;;;;;;6.50;4.00;;;;;17.51;81.86;100925.81;5023293;28;46353;-84
2021/07/28 04:14:00;;;;;;;;;3.00;2.00;;;;;17.50;81.51;100929.50;5028260;28;45570;-84
2021/07/28 04:16:25;;;;;;;;;4.50;3.00;;;;;17.50;81.84;100927.63;5020040;28;46065;-84
2021/07/28 04:18:51;;;;;;;;;4.50;3.75;;;;;17.49;81.50;100925.19;5010502;28;45601;-84
2021/07/28 04:21:16;;;;;;;;;4.50;3.75;;;;;17.50;81.10;100940.19;5007042;28;48097;-84
2021/07/28 04:23:41;;;;;;;;;3.00;2.00;;;;;17.47;81.56;100951.25;5021194;28;45503;-84
2021/07/28 04:26:07;;;;;;;;;3.00;3.00;;;;;17.43;82.01;100950.78;5028346;28;45513;-84
2021/07/28 04:28:32;;;;;;;;;5.00;3.00;;;;;17.42;82.74;100946.47;5003549;28;45818;-84
2021/07/28 04:30:58;;;;;;;;;5.00;3.00;;;;;17.40;81.24;100943.97;5018147;28;45577;-82
2021/07/28 04:33:23;;;;;;;;;3.00;2.75;;;;;17.39;79.48;100942.34;5007771;28;45964;-84
2021/07/28 04:35:48;;;;;;;;;5.25;3.00;;;;;17.39;80.42;100941.50;5025756;28;45395;-83
2021/07/28 04:38:14;;;;;;;;;4.50;2.75;;;;;17.38;80.26;100951.38;5027515;28;45743;-84
2021/07/28 04:40:39;;;;;;;;;4.00;3.25;;;;;17.38;81.08;100955.88;5020651;28;47843;-84
2021/07/28 04:43:04;;;;;;;;;5.00;4.00;;;;;17.38;80.59;100962.06;5019928;28;45444;-85
2021/07/28 04:45:30;;;;;;;;;3.25;3.25;;;;;17.39;80.48;100952.19;5025979;28;45557;-87
2021/07/28 04:47:55;;;;;;;;;6.25;2.00;;;;;17.41;80.92;100956.34;5004073;28;45638;-80
2021/07/28 04:50:20;;;;;;;;;5.50;2.00;;;;;17.44;81.16;100956.97;5031101;28;46035;-80
2021/07/28 04:52:46;;;;;;;;;4.25;2.75;;;;;17.42;79.81;100955.31;5023811;28;45554;-81
2021/07/28 04:55:11;;;;;;;;;3.50;2.75;;;;;17.42;79.57;100955.31;5023030;28;50579;-85
2021/07/28 04:57:37;;;;;;;;;2.75;2.75;;;;;17.41;80.61;100956.34;5025103;28;45566;-87
2021/07/28 05:00:03;;;;;;;;;2.00;2.00;;;;;17.44;80.62;100956.97;5017529;28;46460;-86
2021/07/28 05:02:28;;;;;;;;;3.50;3.00;;;;;17.46;80.28;100957.59;5019863;28;45580;-82
2021/07/28 05:04:55;;;;;;;;;5.00;3.00;;;;;17.45;79.83;100956.78;5008146;28;45550;-85
2021/07/28 05:07:20;;;;;;;;;3.00;3.00;;;;;17.49;79.56;100959.91;5002652;28;46395;-86
2021/07/28 05:09:45;;;;;;;;;3.50;2.00;;;;;17.49;79.62;100963.41;5020491;28;46418;-88
2021/07/28 05:12:11;;;;;;;;;6.25;2.50;;;;;17.51;79.74;100965.91;5019906;28;45747;-85
2021/07/28 05:14:36;;;;;;;;;7.00;2.00;;;;;17.51;78.86;100969.38;5024334;28;45547;-88
2021/07/28 05:17:02;;;;;;;;;3.50;3.00;;;;;17.55;79.44;100961.81;5026578;28;45556;-86
2021/07/28 05:19:27;;;;;;;;;3.75;3.00;;;;;17.57;78.90;100959.78;5020887;28;45662;-85
2021/07/28 05:21:52;;;;;;;;;3.00;2.00;;;;;17.60;79.32;100970.09;5023338;28;45490;-85
2021/07/28 05:24:18;;;;;;;;;3.00;3.00;;;;;17.61;79.73;100974.44;5019527;28;45587;-86
2021/07/28 05:26:43;;;;;;;;;2.25;2.25;;;;;17.62;79.49;100968.06;5019947;28;45583;-83
2021/07/28 05:29:09;;;;;;;;;3.00;3.00;;;;;17.64;79.17;100971.38;5024134;28;45640;-83
2021/07/28 05:31:35;;;;;;;;;6.75;3.50;;;;;17.67;78.78;100980.84;5003721;28;46596;-83
2021/07/28 05:34:00;;;;;;;;;2.00;2.00;;;;;17.68;78.54;100969.97;5015323;28;45525;-81
2021/07/28 05:36:26;;;;;;;;;3.25;3.00;;;;;17.69;79.49;100968.94;5000468;28;45821;-84
2021/07/28 05:38:51;;;;;;;;;3.00;3.00;;;;;17.73;78.87;100974.72;5021309;28;46137;-87
2021/07/28 05:41:16;;;;;;;;;1.75;1.75;;;;;17.74;79.15;100969.22;5025144;28;45509;-79
2021/07/28 05:43:42;;;;;;;;;3.50;3.00;;;;;17.80;78.30;100981.84;5020343;28;45537;-82
2021/07/28 05:46:07;;;;;;;;;3.00;3.00;;;;;17.82;78.00;100976.31;5002995;28;45742;-81
2021/07/28 05:48:32;;;;;;;;;2.50;2.50;;;;;17.84;77.86;100977.75;5022037;28;52420;-82
2021/07/28 05:50:59;;;;;;;;;3.00;3.00;;;;;17.89;78.31;100982.53;5022201;28;45931;-83
2021/07/28 05:53:24;;;;;;;;;2.00;2.00;;;;;17.94;78.19;100977.44;5007059;28;45546;-84
2021/07/28 05:55:50;;;;;;;;;1.75;1.75;;;;;17.99;77.46;100982.22;5007328;28;45728;-84
2021/07/28 05:58:15;;;;;;;;;2.25;2.25;;;;;18.01;77.48;100990.88;5023200;28;45519;-82
2021/07/28 06:00:41;;;;;;;;;3.25;2.25;;;;;18.06;77.86;100993.81;5022114;28;45549;-82
2021/07/28 06:03:06;;;;;;;;;1.50;1.50;;;;;18.07;76.37;100987.44;5021728;28;45520;-82
2021/07/28 06:05:31;;;;;;;;;3.00;3.00;;;;;18.05;76.53;100989.47;5024543;28;45572;-83
2021/07/28 06:07:57;;;;;;;;;4.25;2.75;;;;;18.04;76.62;100994.00;5026559;28;46574;-83
2021/07/28 06:10:22;;;;;;;;;2.00;2.00;;;;;18.04;77.14;100999.34;5025254;28;45552;-82
2021/07/28 06:12:48;;;;;;;;;3.25;2.75;;;;;18.05;77.43;100989.47;5002740;28;45792;-84
2021/07/28 06:15:13;;;;;;;;;7.75;3.00;;;;;18.10;77.57;101005.78;5020228;28;45928;-84
2021/07/28 06:17:38;;;;;;;;;5.00;1.75;;;;;18.13;77.39;101008.06;5022678;28;46246;-84
2021/07/28 06:20:05;;;;;;;;;3.50;3.50;;;;;18.15;76.32;101006.03;5028418;28;45734;-85
2021/07/28 06:22:30;;;;;;;;;3.00;3.00;;;;;18.15;76.65;101002.50;5013693;28;45663;-84
2021/07/28 06:24:56;;;;;;;;;5.00;3.00;;;;;18.14;75.71;100999.00;5025305;28;45733;-84
2021/07/28 06:27:21;;;;;;;;;3.00;3.00;;;;;18.14;76.73;101003.53;5006829;28;47181;-84
2021/07/28 06:29:46;;;;;;;;;8.50;3.50;;;;;18.15;75.08;100998.00;5024103;28;45524;-84
2021/07/28 06:32:12;;;;;;;;;2.75;2.50;;;;;18.20;76.29;101000.94;5029699;28;45782;-84
2021/07/28 06:34:37;;;;;;;;;5.00;3.25;;;;;18.24;74.38;100999.50;5007109;28;46541;-85
2021/07/28 06:37:03;;;;;;;;;2.75;2.75;;;;;18.24;75.27;101004.03;5008889;28;47338;-86
2021/07/28 06:39:28;;;;;;;;;3.75;3.00;;;;;18.24;74.96;101010.22;5026274;28;50756;-84
2021/07/28 06:41:53;;;;;;;;;3.75;2.50;;;;;18.25;75.60;101009.22;5007898;28;45572;-84
2021/07/28 06:44:19;;;;;;;;;3.00;3.00;;;;;18.30;75.55;101018.47;5010430;28;45518;-84
2021/07/28 06:46:44;;;;;;;;;2.25;2.25;;;;;18.34;75.59;101011.72;5007730;28;48442;-84
2021/07/28 06:49:09;;;;;;;;;4.75;2.50;;;;;18.35;72.96;101014.22;5008258;28;45806;-83
2021/07/28 06:51:35;;;;;;;;;3.00;1.50;;;;;18.38;73.40;101013.00;5022204;28;45672;-82
2021/07/28 06:54:06;;;;;;;;;3.00;3.00;;;;;18.40;74.45;101009.13;5023201;28;45598;-84
2021/07/28 06:56:32;;;;;;;;;4.50;3.50;;;;;18.51;73.45;101010.41;5000491;28;45699;-84
2021/07/28 06:58:57;;;;;;;;;5.25;2.75;;;;;18.59;74.00;101012.94;5008876;28;45681;-84
2021/07/28 07:01:22;;;;;;;;;8.00;5.25;;;;;18.69;73.12;101013.44;5019316;28;47314;-84
2021/07/28 07:03:48;;;;;;;;;3.50;3.00;;;;;18.84;74.46;101017.88;5019969;28;45697;-84
2021/07/28 07:06:13;;;;;;;;;8.25;3.50;;;;;19.05;73.20;101016.97;5006113;28;48241;-83
2021/07/28 07:08:39;;;;;;;;;4.25;4.25;;;;;19.20;72.67;101020.34;5024202;28;45549;-84
2021/07/28 07:11:04;;;;;;;;;3.75;2.50;;;;;19.41;72.04;101022.09;5027801;28;46143;-84
2021/07/28 07:13:29;;;;;;;;;2.75;2.25;;;;;19.64;71.92;101027.09;5020443;28;45533;-83
2021/07/28 07:15:55;;;;;;;;;2.75;2.00;;;;;19.85;68.83;101023.47;5018219;28;47703;-82
2021/07/28 07:18:20;;;;;;;;;5.50;3.50;;;;;20.00;66.21;101027.81;5004309;28;45532;-82
2021/07/28 07:20:45;;;;;;;;;3.25;2.50;;;;;19.97;68.97;101026.38;5025608;28;45466;-83
2021/07/28 07:23:12;;;;;;;;;4.75;4.00;;;;;19.93;69.85;101023.28;5028374;28;45561;-83
2021/07/28 07:25:37;;;;;;;;;3.25;2.75;;;;;19.92;70.08;101026.97;5004191;28;46786;-82
2021/07/28 07:28:03;;;;;;;;;5.00;2.00;;;;;19.96;70.06;101030.94;5001540;28;47777;-82
2021/07/28 07:30:29;;;;;;;;;3.00;3.00;;;;;20.17;70.26;101024.53;5002848;28;48494;-82
2021/07/28 07:35:38;;;;;;;;;3.00;2.75;;;;;20.43;69.80;101030.13;5019242;28;45494;-82
2021/07/28 07:38:03;;;;;;;;;5.00;2.00;;;;;20.51;67.99;101029.91;5010364;28;45438;-83
2021/07/28 07:40:29;;;;;;;;;3.50;3.00;;;;;20.64;68.76;101027.25;5023421;28;55808;-82
2021/07/28 07:42:54;;;;;;;;;5.25;3.25;;;;;20.91;68.05;101028.00;5023097;28;45395;-82
2021/07/28 07:45:20;;;;;;;;;4.00;2.75;;;;;21.31;66.99;101030.56;5003302;28;47319;-83
2021/07/28 07:47:45;;;;;;;;;4.75;3.00;;;;;22.75;65.79;101028.19;5019302;28;45673;-82
2021/07/28 07:50:14;;;;;;;;;5.25;3.25;;;;;23.12;62.55;101025.50;5010600;28;45426;-82
2021/07/28 07:52:39;;;;;;;;;4.00;3.00;;;;;23.17;63.29;101036.47;5023986;28;45788;-82
2021/07/28 07:55:05;;;;;;;;;3.00;3.00;;;;;23.23;63.10;101030.16;5023772;28;46522;-83
2021/07/28 07:57:32;;;;;;;;;4.00;4.00;;;;;23.35;62.49;101033.75;5002636;28;45593;-83
2021/07/28 07:59:57;;;;;;;;;5.00;4.00;;;;;23.39;61.62;101029.56;5022384;28;45834;-83
2021/07/28 08:02:23;;;;;;;;;4.25;2.50;;;;;23.48;61.78;101031.94;5008790;28;45701;-83
2021/07/28 08:04:48;;;;;;;;;9.00;4.25;;;;;23.46;60.99;101028.63;5024163;28;46322;-83
2021/07/28 08:07:16;;;;;;;;;4.00;3.00;;;;;23.26;61.52;101023.50;5024588;28;45370;-82
2021/07/28 08:09:42;;;;;;;;;4.25;3.75;;;;;23.00;61.93;101030.00;5007725;28;45609;-82
2021/07/28 08:12:07;;;;;;;;;3.00;3.00;;;;;22.67;61.85;101031.16;5007488;28;45590;-83
2021/07/28 08:14:33;;;;;;;;;5.75;4.75;;;;;23.36;60.07;101030.00;5014776;28;48310;-83
2021/07/28 08:16:58;;;;;;;;;3.00;3.00;;;;;25.42;60.19;101024.94;5003110;28;46248;-83
2021/07/28 08:19:23;;;;;;;;;4.00;4.00;;;;;26.34;57.06;101018.47;5007822;28;45597;-84
2021/07/28 08:21:49;;;;;;;;;4.75;3.00;;;;;26.09;57.54;101019.69;5022533;28;45452;-83
2021/07/28 08:24:17;;;;;;;;;4.25;3.25;;;;;26.61;56.51;101026.75;5012851;28;48256;-83
2021/07/28 08:26:43;;;;;;;;;4.00;3.00;;;;;26.34;54.69;101027.41;5025315;28;45453;-83
2021/07/28 08:29:08;;;;;;;;;5.00;3.00;;;;;25.81;56.08;101023.22;5025997;28;45471;-83
2021/07/28 08:31:34;;;;;;;;;2.25;2.00;;;;;25.58;56.58;101020.66;5025021;28;45494;-83
2021/07/28 08:33:59;;;;;;;;;4.00;3.00;;;;;26.09;55.72;101018.88;5022568;28;46497;-82
2021/07/28 08:36:25;;;;;;;;;3.25;3.25;;;;;26.15;54.49;101023.31;5022245;28;45799;-84
2021/07/28 08:38:50;;;;;;;;;2.25;2.00;;;;;26.45;53.16;101022.13;5004630;28;45799;-83
2021/07/28 08:41:19;;;;;;;;;2.00;2.00;;;;;27.92;52.03;101018.81;5010020;28;45707;-82
2021/07/28 08:43:45;;;;;;;;;2.00;1.25;;;;;28.98;50.42;101017.09;5004367;28;45689;-83
2021/07/28 08:46:10;;;;;;;;;3.00;2.50;;;;;29.72;47.15;101016.00;5022887;28;45542;-83
2021/07/28 08:48:37;;;;;;;;;2.00;2.00;;;;;29.08;46.75;101014.44;5023410;28;51245;-83
2021/07/28 08:51:04;;;;;;;;;2.75;2.75;;;;;28.50;47.96;101020.66;5006354;28;45738;-83
2021/07/28 08:53:30;;;;;;;;;5.00;3.00;;;;;27.81;48.78;101024.13;5004705;28;47401;-84
2021/07/28 08:55:58;;;;;;;;;3.25;1.75;;;;;26.95;49.05;101021.22;5008960;28;45715;-84
2021/07/28 08:58:26;;;;;;;;;2.00;2.00;;;;;26.15;50.85;101023.31;5020780;28;45537;-83
2021/07/28 09:00:53;;;;;;;;;2.00;2.00;;;;;25.58;52.33;101028.78;5004071;28;45497;-83
2021/07/28 09:03:19;;;;;;;;;3.75;2.00;;;;;25.09;53.26;101031.81;5003555;28;47525;-83
2021/07/28 09:05:52;;;;;;;;;5.25;2.75;;;;;24.63;54.29;101023.56;5022848;28;45566;-83
2021/07/28 09:08:34;;;;;;;;;4.00;3.00;;;;;24.26;54.31;101039.13;5010874;28;45437;-83
2021/07/28 09:11:07;;;;;;;;;4.00;3.00;;;;;23.94;54.96;101034.00;5009027;28;45547;-83
2021/07/28 09:13:38;;;;;;;;;2.50;2.50;;;;;23.67;55.69;101041.63;5007067;28;48028;-83
2021/07/28 09:16:05;;;;;;;;;3.75;2.00;;;;;23.44;55.37;101044.22;5022432;28;45463;-83
2021/07/28 09:18:33;;;;;;;;;4.00;3.50;;;;;23.16;55.79;101040.19;5006965;28;45826;-83
2021/07/28 09:21:01;;;;;;;;;5.00;2.50;;;;;22.90;57.57;101036.72;5003954;28;48093;-83
2021/07/28 09:23:38;;;;;;;;;3.00;2.00;;;;;22.73;57.14;101038.38;5023255;28;46188;-82
2021/07/28 09:26:16;;;;;;;;;5.25;4.00;;;;;22.63;57.83;101046.13;5009753;28;46012;-83
2021/07/28 09:28:42;;;;;;;;;2.00;2.00;;;;;22.58;58.71;101052.19;5009646;28;45375;-82
2021/07/28 09:31:08;;;;;;;;;4.25;2.75;;;;;22.46;58.05;101040.47;5008951;28;45484;-82
2021/07/28 09:33:33;;;;;;;;;3.00;3.00;;;;;22.30;58.37;101028.38;5007558;28;47981;-82
2021/07/28 09:36:04;;;;;;;;;5.00;2.25;;;;;22.23;58.88;101044.59;5025531;28;45530;-85
2021/07/28 09:38:43;;;;;;;;;3.00;2.00;;;;;22.19;59.71;101043.34;5026888;28;45328;-83
2021/07/28 09:41:17;;;;;;;;;2.50;2.50;;;;;22.20;59.46;101041.50;5012180;28;45764;-81
2021/07/28 09:43:52;;;;;;;;;3.00;3.00;;;;;22.26;59.90;101040.66;5008127;28;48679;-81
2021/07/28 09:46:38;;;;;;;;;3.75;3.75;;;;;22.38;59.90;101033.50;5012362;28;45461;-82
2021/07/28 09:49:09;;;;;;;;;3.00;3.00;;;;;22.43;59.40;101044.44;5023942;28;45616;-82
2021/07/28 09:51:38;;;;;;;;;3.25;3.00;;;;;22.62;59.99;101047.16;5021706;28;45804;-82
2021/07/28 09:54:06;;;;;;;;;4.00;3.75;;;;;22.84;59.29;101042.19;5007648;28;46586;-84
2021/07/28 09:56:51;;;;;;;;;3.00;3.00;;;;;23.01;58.36;101051.34;5025911;28;46131;-83
2021/07/28 09:59:17;;;;;;;;;2.25;2.25;;;;;23.15;57.09;101044.78;5012634;28;45534;-84
2021/07/28 10:01:47;;;;;;;;;7.00;3.50;;;;;23.16;53.21;101050.97;5023796;28;45611;-84
2021/07/28 10:04:14;;;;;;;;;2.75;2.75;;;;;23.16;57.80;101050.97;5023992;28;47309;-84
2021/07/28 10:06:43;;;;;;;;;5.25;4.00;;;;;23.26;54.64;101051.28;5022797;28;45541;-85
2021/07/28 10:09:24;;;;;;;;;4.00;3.00;;;;;23.47;54.66;101052.69;5012044;28;45510;-85
2021/07/28 10:11:52;;;;;;;;;8.50;5.00;;;;;23.93;57.11;101042.31;5014774;28;45669;-84
2021/07/28 10:14:21;;;;;;;;;3.75;3.25;;;;;24.68;55.65;101039.06;5031898;28;45970;-84
2021/07/28 10:16:47;;;;;;;;;3.00;3.00;;;;;25.42;54.95;101033.91;5026839;28;45952;-85
2021/07/28 10:19:14;;;;;;;;;3.00;3.00;;;;;26.34;54.16;101032.81;5026113;28;45631;-83
2021/07/28 10:21:39;;;;;;;;;3.00;2.00;;;;;27.40;51.00;101036.47;5022256;28;46018;-83
2021/07/28 10:24:06;;;;;;;;;3.00;3.00;;;;;28.18;50.53;101028.00;5025605;28;47236;-84
2021/07/28 10:26:36;;;;;;;;;4.00;4.00;;;;;28.94;48.41;101025.78;5026064;28;45489;-82
2021/07/28 10:29:02;;;;;;;;;4.25;4.25;;;;;29.05;45.93;101026.63;5027053;28;45540;-80
2021/07/28 10:31:43;;;;;;;;;3.00;1.25;;;;;28.55;46.77;101044.34;5017792;28;45636;-79
2021/07/28 10:34:26;;;;;;;;;1.00;1.00;;;;;27.99;46.87;101042.00;5024694;28;45470;-81
2021/07/28 10:36:54;;;;;;;;;3.50;1.75;;;;;27.90;49.65;101040.81;5017571;28;45593;-80
2021/07/28 10:39:46;;;;;;;;;1.75;1.25;;;;;28.58;48.34;101032.13;5026465;28;45505;-80
2021/07/28 10:42:19;;;;;;;;;2.00;2.00;;;;;29.41;47.73;101034.97;5006516;28;45696;-80
2021/07/28 10:44:56;;;;;;;;;2.00;2.00;;;;;30.32;45.55;101030.75;5026254;28;45448;-80
2021/07/28 10:47:37;;;;;;;;;2.00;2.00;;;;;31.10;43.84;101026.72;5024813;28;45549;-79
2021/07/28 10:50:22;;;;;;;;;1.00;1.00;;;;;31.80;38.73;101026.63;5005079;28;46394;-80
2021/07/28 10:52:51;;;;;;;;;1.00;1.00;;;;;32.20;39.13;101019.22;5023464;28;45402;-78
2021/07/28 10:55:29;;;;;;;;;1.00;1.00;;;;;32.51;40.42;101022.47;5018841;28;52004;-79
2021/07/28 10:58:07;;;;;;;;;1.00;1.00;;;;;32.78;39.39;101023.84;5021010;28;46725;-79
2021/07/28 11:00:39;;;;;;;;;2.00;1.00;;;;;33.05;40.10;101015.03;5019227;28;45450;-78
2021/07/28 11:03:07;;;;;;;;;1.50;1.00;;;;;33.33;37.54;101024.25;5021238;28;45565;-79
2021/07/28 11:06:13;;;;;;;;;1.75;1.00;;;;;33.43;38.14;101026.00;5022364;28;45974;-81
2021/07/28 11:08:40;;;;;;;;;2.00;2.00;;;;;33.50;39.37;101029.22;4921023;28;45544;-81
2021/07/28 11:11:07;;;;;;;;;1.25;1.00;;;;;33.68;38.14;101030.34;4909640;28;45603;-80
2021/07/28 11:13:33;;;;;;;;;0.75;0.75;;;;;34.06;37.89;101033.03;4923019;28;45636;-79
2021/07/28 11:16:00;;;;;;;;;2.50;1.00;;;;;34.45;38.48;101034.56;4921545;28;46353;-79
2021/07/28 11:18:41;;;;;;;;;1.00;0.50;;;;;34.62;36.08;101031.22;4923081;28;45914;-81
2021/07/28 11:21:10;;;;;;;;;0.50;0.00;;;;;34.66;36.18;101026.78;4922242;28;45796;-80
2021/07/28 11:23:36;;;;;;;;;1.00;1.00;;;;;34.60;36.52;101030.75;4906459;28;45504;-81
2021/07/28 11:26:03;;;;;;;;;0.00;0.00;;;;;34.47;36.07;101030.41;4925784;28;46309;-83
2021/07/28 11:28:28;;;;;;;;;0.00;0.00;;;;;34.24;35.07;101028.63;4922569;28;45493;-82
2021/07/28 11:31:02;;;;;;;;;0.25;0.25;;;;;34.46;36.42;101038.91;4918715;28;45524;-82